Time;durP1;ratioP1;P1;durP2;ratioP2;P2;SDS_P1;SDS_P2;PMS_P1;PMS_P2;Temp;Humidity;BMP_temperature;BMP_pressure;BME280_temperature;BME280_humidity;BME280_pressure;Samples;Min_cycle;Max_cycle;Signal;HPM_P1;HPM_P2
2024/01/18 00:00:54;;;;;;;1493.30;999.90;;;26.50;99.90;;;;;;5054794;28;20025;-69
2024/01/18 00:03:20;;;;;;;1487.50;999.90;;;26.40;99.90;;;;;;5053751;28;20045;-69
2024/01/18 00:05:47;;;;;;;1471.63;999.90;;;26.40;99.90;;;;;;5053712;28;20032;-70
2024/01/18 00:08:13;;;;;;;1485.63;999.90;;;26.50;99.90;;;;;;5053807;28;20025;-68
2024/01/18 00:10:40;;;;;;;1470.45;999.90;;;26.50;99.90;;;;;;5061854;28;20027;-69
2024/01/18 00:13:07;;;;;;;1492.80;999.90;;;26.40;99.90;;;;;;5058940;28;20036;-73
2024/01/18 00:15:33;;;;;;;1492.30;999.90;;;26.40;99.90;;;;;;5054366;28;20044;-69
2024/01/18 00:18:00;;;;;;;1483.82;999.90;;;26.30;99.90;;;;;;5053292;28;20086;-70
2024/01/18 00:20:27;;;;;;;1495.68;999.90;;;26.30;99.90;;;;;;5053535;28;20025;-69
2024/01/18 00:22:54;;;;;;;1470.72;999.90;;;26.20;99.90;;;;;;5053575;28;20025;-71
2024/01/18 00:25:21;;;;;;;1493.05;999.90;;;26.30;99.90;;;;;;5053746;28;20048;-71
2024/01/18 00:27:48;;;;;;;1480.68;999.90;;;26.20;99.90;;;;;;5053530;28;20021;-71
2024/01/18 00:30:16;;;;;;;1491.63;999.90;;;26.30;99.90;;;;;;5053502;28;20422;-70
2024/01/18 00:32:43;;;;;;;1500.72;999.90;;;26.30;99.90;;;;;;5053486;28;20029;-70
2024/01/18 00:35:10;;;;;;;1491.28;999.90;;;26.30;99.90;;;;;;5053297;28;20446;-71
2024/01/18 00:37:36;;;;;;;1486.78;999.90;;;26.30;99.90;;;;;;5053500;28;20025;-71
2024/01/18 00:40:03;;;;;;;1485.85;999.90;;;26.30;99.90;;;;;;5052433;28;20025;-70
2024/01/18 00:42:29;;;;;;;1467.53;999.90;;;26.30;99.90;;;;;;5041641;28;20074;-71
2024/01/18 00:44:56;;;;;;;1491.85;999.90;;;26.30;99.90;;;;;;5053293;28;20112;-70
2024/01/18 00:47:22;;;;;;;1472.97;999.90;;;26.30;99.90;;;;;;5053293;28;20553;-68
2024/01/18 00:49:49;;;;;;;1480.40;999.90;;;26.30;99.90;;;;;;5053265;28;20078;-69
2024/01/18 00:52:16;;;;;;;1490.13;999.90;;;26.30;99.90;;;;;;5053212;28;20022;-70
2024/01/18 00:54:42;;;;;;;1476.55;999.90;;;26.20;99.90;;;;;;5053413;28;20401;-72
2024/01/18 00:57:09;;;;;;;1482.97;999.90;;;26.30;99.90;;;;;;5053352;28;20029;-70
2024/01/18 00:59:35;;;;;;;1486.47;999.90;;;26.40;99.90;;;;;;5053170;28;20532;-69
2024/01/18 01:02:03;;;;;;;1478.00;999.90;;;26.30;99.90;;;;;;5053052;28;20516;-71
2024/01/18 01:04:30;;;;;;;1467.32;999.90;;;26.30;99.90;;;;;;5052848;28;20073;-71
2024/01/18 01:06:56;;;;;;;1491.30;999.90;;;26.40;99.90;;;;;;5052967;28;20024;-71
2024/01/18 01:09:23;;;;;;;1478.40;999.90;;;26.40;99.90;;;;;;5053226;28;20017;-71
2024/01/18 01:11:51;;;;;;;1456.75;999.90;;;26.40;99.90;;;;;;5053062;28;20021;-70
2024/01/18 01:14:19;;;;;;;1482.05;999.90;;;26.50;99.90;;;;;;5052880;28;20036;-71
2024/01/18 01:16:45;;;;;;;1490.15;999.90;;;26.50;99.90;;;;;;5052953;28;20025;-71
2024/01/18 01:19:12;;;;;;;1456.93;999.90;;;26.50;99.90;;;;;;5052803;28;20025;-73
2024/01/18 01:21:38;;;;;;;1472.47;999.90;;;26.60;99.90;;;;;;5052765;28;20029;-70
2024/01/18 01:24:05;;;;;;;1470.53;999.90;;;26.50;99.90;;;;;;5052834;28;20359;-73
2024/01/18 01:26:31;;;;;;;1493.13;999.90;;;26.50;99.90;;;;;;5052817;28;20022;-71
2024/01/18 01:28:58;;;;;;;1481.18;999.90;;;26.50;99.90;;;;;;5053136;28;20416;-70
2024/01/18 01:31:24;;;;;;;1456.43;999.90;;;26.50;99.90;;;;;;5056993;28;20021;-69
2024/01/18 01:33:51;;;;;;;1461.20;999.90;;;26.50;99.90;;;;;;5056868;28;20051;-68
2024/01/18 01:36:17;;;;;;;1483.18;999.90;;;26.50;99.90;;;;;;5056612;28;20105;-69
2024/01/18 01:38:44;;;;;;;1466.45;999.90;;;26.50;99.90;;;;;;5056682;28;20025;-69
2024/01/18 01:41:11;;;;;;;1458.32;999.90;;;26.60;99.90;;;;;;5056605;28;20024;-69
2024/01/18 01:43:37;;;;;;;1467.28;999.90;;;26.60;99.90;;;;;;5056515;28;20037;-73
2024/01/18 01:46:04;;;;;;;1457.82;999.90;;;26.60;99.90;;;;;;5056406;28;20017;-68
2024/01/18 01:48:30;;;;;;;1488.28;999.90;;;26.60;99.90;;;;;;5056467;28;20043;-69
2024/01/18 01:50:57;;;;;;;1470.90;999.90;;;26.70;99.90;;;;;;5056257;28;20021;-68
2024/01/18 01:53:23;;;;;;;1474.93;999.90;;;26.70;99.90;;;;;;5056375;28;20014;-70
2024/01/18 01:55:50;;;;;;;1485.13;999.90;;;26.70;99.90;;;;;;5056189;28;20478;-68
2024/01/18 01:58:21;;;;;;;1473.18;999.90;;;26.60;99.90;;;;;;5056093;28;20025;-69
2024/01/18 02:00:47;;;;;;;1449.95;999.90;;;26.60;99.90;;;;;;5049852;28;20033;-68
2024/01/18 02:03:14;;;;;;;1474.93;999.90;;;26.70;99.90;;;;;;5044192;28;20479;-69
2024/01/18 02:05:41;;;;;;;1485.70;999.90;;;26.70;99.90;;;;;;5036018;28;20467;-69
2024/01/18 02:08:08;;;;;;;1479.82;999.90;;;26.80;99.90;;;;;;5036135;28;20021;-68
2024/01/18 02:10:34;;;;;;;1472.80;999.90;;;26.80;99.90;;;;;;5036206;28;20013;-68
2024/01/18 02:13:02;;;;;;;1487.45;999.90;;;26.80;99.90;;;;;;5036051;28;20045;-70
2024/01/18 02:15:29;;;;;;;1456.72;999.90;;;26.80;99.90;;;;;;5036046;28;20413;-68
2024/01/18 02:17:56;;;;;;;1457.93;999.90;;;26.80;99.90;;;;;;5035930;28;20021;-69
2024/01/18 02:20:22;;;;;;;1473.78;999.90;;;26.80;99.90;;;;;;5035861;28;20108;-71
2024/01/18 02:22:50;;;;;;;1459.07;999.90;;;26.80;99.90;;;;;;5036115;28;20037;-71
2024/01/18 02:25:28;;;;;;;1483.88;999.90;;;26.80;99.90;;;;;;5035914;28;20026;-70
2024/01/18 02:27:56;;;;;;;1476.40;999.90;;;26.80;99.90;;;;;;5062246;28;20047;-68
2024/01/18 02:30:22;;;;;;;1478.40;999.90;;;26.90;99.90;;;;;;5063756;28;20017;-69
2024/01/18 02:32:49;;;;;;;1429.38;999.90;;;26.90;99.90;;;;;;5064774;28;20021;-69
2024/01/18 02:35:16;;;;;;;1475.68;999.90;;;26.90;99.90;;;;;;5064786;28;20032;-68
2024/01/18 02:37:43;;;;;;;1467.68;999.90;;;27.00;99.90;;;;;;5063861;28;20017;-70
2024/01/18 02:40:10;;;;;;;1479.07;999.90;;;27.00;99.90;;;;;;5058182;28;20032;-70
2024/01/18 02:42:36;;;;;;;1467.93;999.90;;;27.00;99.90;;;;;;5047239;28;20025;-72
2024/01/18 02:45:03;;;;;;;1469.38;999.90;;;27.10;99.90;;;;;;5055123;28;20029;-72
2024/01/18 02:47:30;;;;;;;1481.05;999.90;;;27.10;99.90;;;;;;5063306;28;20008;-71
2024/01/18 02:49:57;;;;;;;1366.20;999.90;;;27.10;99.90;;;;;;5072876;28;20021;-70
2024/01/18 02:52:24;;;;;;;1469.57;999.90;;;27.10;99.90;;;;;;5075473;28;20377;-71
2024/01/18 02:54:50;;;;;;;1469.30;999.90;;;27.10;99.90;;;;;;5075324;28;20021;-71
2024/01/18 02:57:17;;;;;;;1483.60;999.90;;;27.10;99.90;;;;;;5075187;28;20355;-72
2024/01/18 02:59:43;;;;;;;1475.05;999.90;;;27.00;99.90;;;;;;5075307;28;20024;-71
2024/01/18 03:02:10;;;;;;;1481.72;999.90;;;27.10;99.90;;;;;;5075105;28;20040;-71
2024/01/18 03:04:36;;;;;;;1481.80;999.90;;;27.10;99.90;;;;;;5075068;28;20103;-71
2024/01/18 03:07:03;;;;;;;1458.70;999.90;;;27.10;99.90;;;;;;5075102;28;20474;-72
2024/01/18 03:09:30;;;;;;;1480.88;999.90;;;27.10;99.90;;;;;;5075153;28;20461;-72
2024/01/18 03:11:56;;;;;;;1448.40;999.90;;;27.20;99.90;;;;;;5074826;28;20021;-73
2024/01/18 03:14:23;;;;;;;1476.80;999.90;;;27.20;99.90;;;;;;5074945;28;20055;-72
2024/01/18 03:16:49;;;;;;;1424.65;999.90;;;27.20;99.90;;;;;;5075048;28;20028;-72
2024/01/18 03:19:16;;;;;;;1478.50;999.90;;;27.20;99.90;;;;;;5074949;28;20032;-74
2024/01/18 03:21:42;;;;;;;1451.88;999.90;;;27.20;99.90;;;;;;5067949;28;20017;-72
2024/01/18 03:24:09;;;;;;;1466.80;999.90;;;27.30;99.90;;;;;;5054672;28;20171;-73
2024/01/18 03:26:35;;;;;;;1445.70;999.90;;;27.30;99.90;;;;;;5054869;28;20053;-72
2024/01/18 03:29:02;;;;;;;1443.63;999.90;;;27.30;99.90;;;;;;5054434;28;20017;-73
2024/01/18 03:31:28;;;;;;;1446.40;999.90;;;27.40;99.90;;;;;;5054777;28;20100;-72
2024/01/18 03:33:55;;;;;;;1463.97;999.90;;;27.40;99.90;;;;;;5054541;28;20018;-73
2024/01/18 03:36:22;;;;;;;1449.45;999.90;;;27.50;99.90;;;;;;5061985;28;20024;-72
2024/01/18 03:38:48;;;;;;;1477.95;999.90;;;27.50;99.90;;;;;;5064739;28;20048;-75
2024/01/18 03:41:16;;;;;;;1480.85;999.90;;;27.50;99.90;;;;;;5062915;28;20103;-73
2024/01/18 03:43:45;;;;;;;1483.18;999.90;;;27.60;99.90;;;;;;5064210;28;20025;-71
2024/01/18 03:46:15;;;;;;;1471.93;999.90;;;27.70;99.90;;;;;;5064807;28;20068;-73
2024/01/18 03:48:42;;;;;;;1463.15;999.90;;;27.70;99.90;;;;;;5061183;28;20020;-72
2024/01/18 03:51:08;;;;;;;1481.53;999.90;;;27.80;99.90;;;;;;5063237;28;20021;-72
2024/01/18 03:53:36;;;;;;;1465.45;999.90;;;27.80;99.90;;;;;;5064538;28;20020;-71
2024/01/18 03:56:03;;;;;;;1468.38;999.90;;;27.90;99.90;;;;;;5063507;28;20100;-72
2024/01/18 03:58:29;;;;;;;1480.28;999.90;;;28.00;99.90;;;;;;5062922;28;20016;-72
2024/01/18 04:00:56;;;;;;;1462.28;999.90;;;28.00;99.90;;;;;;5058719;28;20017;-71
2024/01/18 04:03:23;;;;;;;1470.35;999.90;;;28.10;99.90;;;;;;5061039;28;20486;-71
2024/01/18 04:05:49;;;;;;;1465.60;999.90;;;28.20;99.90;;;;;;5064062;28;20029;-73
2024/01/18 04:08:16;;;;;;;1457.38;999.90;;;28.30;99.90;;;;;;5062555;28;20028;-71
2024/01/18 04:10:42;;;;;;;1476.40;999.90;;;28.20;99.90;;;;;;5063836;28;20020;-70
2024/01/18 04:13:09;;;;;;;1450.40;999.90;;;28.30;99.90;;;;;;5063838;28;20025;-71
2024/01/18 04:15:35;;;;;;;1446.38;999.90;;;28.40;99.90;;;;;;5062490;28;20024;-71
2024/01/18 04:18:02;;;;;;;1489.47;999.90;;;28.40;99.90;;;;;;5063629;28;20051;-73
2024/01/18 04:20:30;;;;;;;1475.60;999.90;;;28.50;99.90;;;;;;5063848;28;20017;-72
2024/01/18 04:22:56;;;;;;;1474.57;999.90;;;28.50;99.90;;;;;;5060432;28;20024;-68
2024/01/18 04:25:23;;;;;;;1472.13;999.90;;;28.60;99.90;;;;;;5063492;28;20055;-69
2024/01/18 04:27:50;;;;;;;1445.25;999.90;;;28.60;99.90;;;;;;5061217;28;20043;-68
2024/01/18 04:30:16;;;;;;;1473.22;999.90;;;28.70;99.90;;;;;;5057934;28;20020;-69
2024/01/18 04:32:43;;;;;;;1388.25;999.90;;;28.80;99.90;;;;;;5063803;28;20020;-71
2024/01/18 04:35:10;;;;;;;1470.95;999.90;;;28.80;99.90;;;;;;5063235;28;20028;-72
2024/01/18 04:37:36;;;;;;;1477.78;999.90;;;28.80;99.90;;;;;;5054436;28;20025;-73
2024/01/18 04:40:03;;;;;;;1479.43;999.90;;;28.90;99.90;;;;;;5055371;28;20032;-72
2024/01/18 04:42:30;;;;;;;1414.35;999.90;;;29.10;99.90;;;;;;5062250;28;20091;-69
2024/01/18 04:44:57;;;;;;;1488.25;999.90;;;29.10;99.90;;;;;;5062253;28;20017;-71
2024/01/18 04:47:24;;;;;;;1481.35;999.90;;;29.20;99.90;;;;;;5063322;28;20413;-72
2024/01/18 04:49:51;;;;;;;1426.43;999.90;;;29.20;99.90;;;;;;5063685;28;20021;-71
2024/01/18 04:52:17;;;;;;;1414.97;999.90;;;29.30;99.90;;;;;;5064276;28;20394;-71
2024/01/18 04:54:44;;;;;;;1436.95;999.90;;;29.40;99.90;;;;;;5063270;28;20031;-71
2024/01/18 04:57:11;;;;;;;1463.22;999.90;;;29.50;99.90;;;;;;5070695;28;20025;-71
2024/01/18 04:59:37;;;;;;;1485.35;999.90;;;29.60;99.90;;;;;;5073540;28;20024;-70
2024/01/18 05:02:04;;;;;;;1490.85;999.90;;;29.60;99.90;;;;;;5070112;28;20036;-71
2024/01/18 05:04:30;;;;;;;1490.13;999.90;;;29.60;99.90;;;;;;5074782;28;20032;-70
2024/01/18 05:06:57;;;;;;;1491.53;999.90;;;29.60;99.90;;;;;;5077673;28;20013;-72
2024/01/18 05:09:24;;;;;;;1423.03;999.90;;;29.60;99.90;;;;;;5077982;28;20101;-72
2024/01/18 05:11:51;;;;;;;1472.30;999.90;;;29.60;99.90;;;;;;5077927;28;20218;-71
2024/01/18 05:14:18;;;;;;;1486.28;999.90;;;29.70;99.90;;;;;;5066057;28;20486;-72
2024/01/18 05:16:50;;;;;;;1471.93;999.90;;;29.70;99.90;;;;;;5057952;28;20021;-76
2024/01/18 05:19:18;;;;;;;1482.32;999.90;;;29.80;99.90;;;;;;5058836;28;20025;-71
2024/01/18 05:21:44;;;;;;;1421.90;999.90;;;29.80;99.90;;;;;;5059558;28;20035;-74
2024/01/18 05:24:11;;;;;;;1439.38;999.90;;;29.70;99.90;;;;;;5062118;22;20077;-71
2024/01/18 05:26:37;;;;;;;1493.70;999.90;;;29.90;99.90;;;;;;5037637;28;20475;-72
2024/01/18 05:29:04;;;;;;;1438.88;999.90;;;30.00;99.90;;;;;;5037262;28;20049;-72
2024/01/18 05:31:30;;;;;;;1434.38;999.90;;;30.00;99.90;;;;;;5037990;28;20017;-71
2024/01/18 05:33:57;;;;;;;1429.85;999.90;;;30.10;99.90;;;;;;5037354;28;20022;-71
2024/01/18 05:36:23;;;;;;;1479.78;999.90;;;30.20;99.90;;;;;;5036823;28;20021;-71
2024/01/18 05:38:50;;;;;;;1429.25;999.90;;;30.10;99.90;;;;;;5037415;28;20075;-72
2024/01/18 05:41:16;;;;;;;1485.53;999.90;;;30.10;99.90;;;;;;5036920;28;20151;-72
2024/01/18 05:43:43;;;;;;;1442.93;999.90;;;30.10;99.90;;;;;;5036747;28;20109;-71
2024/01/18 05:46:09;;;;;;;1468.55;999.90;;;30.10;99.90;;;;;;5036826;28;20108;-71
2024/01/18 05:48:36;;;;;;;1497.85;999.90;;;30.10;99.90;;;;;;5018945;28;20390;-71
2024/01/18 05:51:03;;;;;;;1428.10;999.90;;;30.20;99.90;;;;;;5036715;28;20416;-70
2024/01/18 05:53:29;;;;;;;1473.00;999.90;;;30.40;99.90;;;;;;5037067;28;20064;-70
2024/01/18 05:55:59;;;;;;;1493.68;999.90;;;30.60;99.90;;;;;;5036759;28;20470;-70
2024/01/18 05:58:26;;;;;;;1432.38;999.90;;;30.70;99.90;;;;;;5036431;28;20029;-71
2024/01/18 06:00:53;;;;;;;1439.50;999.90;;;30.70;99.90;;;;;;5030229;28;20034;-70
2024/01/18 06:03:20;;;;;;;1467.78;999.90;;;30.70;99.90;;;;;;5025963;28;20041;-70
2024/01/18 06:05:46;;;;;;;1474.00;999.90;;;30.70;99.90;;;;;;5036754;28;20029;-72
2024/01/18 06:08:12;;;;;;;1496.03;999.90;;;30.70;99.90;;;;;;5036494;28;20081;-72
2024/01/18 06:10:41;;;;;;;1498.03;999.90;;;30.80;99.90;;;;;;5027822;28;20033;-70
2024/01/18 06:13:07;;;;;;;1481.60;999.90;;;30.90;99.90;;;;;;5028857;28;20021;-72
2024/01/18 06:15:34;;;;;;;1498.85;999.90;;;30.90;99.90;;;;;;5035911;28;20017;-71
2024/01/18 06:18:03;;;;;;;1489.32;999.90;;;30.80;99.90;;;;;;5036161;28;20022;-71
2024/01/18 06:20:31;;;;;;;1459.25;999.90;;;30.80;99.90;;;;;;5035690;28;20026;-71
2024/01/18 06:22:58;;;;;;;1510.07;999.90;;;30.80;99.90;;;;;;5035681;28;20041;-75
2024/01/18 06:25:25;;;;;;;1499.88;999.90;;;30.70;99.90;;;;;;5035741;28;20521;-71
2024/01/18 06:27:52;;;;;;;1490.65;999.90;;;30.70;99.90;;;;;;5036213;28;20431;-69
2024/01/18 06:30:19;;;;;;;1463.57;999.90;;;30.70;99.90;;;;;;5036078;28;20041;-69
2024/01/18 06:32:45;;;;;;;1465.47;999.90;;;30.70;99.90;;;;;;5035732;28;20026;-69
2024/01/18 06:35:12;;;;;;;1490.35;999.90;;;30.80;99.90;;;;;;5035688;28;20072;-68
2024/01/18 06:37:39;;;;;;;1511.95;999.90;;;30.90;99.90;;;;;;5035860;28;20363;-69
2024/01/18 06:40:07;;;;;;;1479.88;999.90;;;31.10;99.90;;;;;;5035925;28;20549;-70
2024/01/18 06:42:34;;;;;;;1510.47;999.90;;;31.30;99.90;;;;;;5035606;28;20029;-69
2024/01/18 06:45:02;;;;;;;1509.57;999.90;;;31.40;99.90;;;;;;5035467;28;20490;-69
2024/01/18 06:47:29;;;;;;;1497.38;999.90;;;31.40;99.90;;;;;;5035490;28;20024;-70
2024/01/18 06:49:55;;;;;;;1528.22;999.90;;;31.40;99.90;;;;;;5035998;28;20101;-70
2024/01/18 06:52:22;;;;;;;1523.97;999.90;;;31.50;99.90;;;;;;5035179;28;20022;-68
2024/01/18 06:54:48;;;;;;;1519.10;999.90;;;31.50;99.90;;;;;;5034985;28;20026;-72
2024/01/18 06:57:15;;;;;;;1513.95;999.90;;;31.60;99.90;;;;;;5016545;28;20040;-68
2024/01/18 06:59:46;;;;;;;1514.22;999.90;;;31.70;99.90;;;;;;5032428;28;20083;-68
2024/01/18 07:02:13;;;;;;;1521.05;999.90;;;31.70;99.90;;;;;;5034014;28;20033;-67
2024/01/18 07:04:39;;;;;;;1520.32;999.90;;;31.80;99.90;;;;;;5034029;28;20035;-68
2024/01/18 07:07:06;;;;;;;1525.35;999.90;;;31.80;99.90;;;;;;5034613;28;20025;-67
2024/01/18 07:09:33;;;;;;;1505.07;999.90;;;31.80;99.90;;;;;;5034787;28;20014;-68
2024/01/18 07:11:59;;;;;;;1516.68;999.90;;;31.80;99.90;;;;;;5034635;28;20041;-68
2024/01/18 07:14:26;;;;;;;1498.05;999.90;;;31.80;99.90;;;;;;5034394;28;20470;-69
2024/01/18 07:16:52;;;;;;;1520.05;999.90;;;31.70;99.90;;;;;;5034499;28;20075;-69
2024/01/18 07:19:19;;;;;;;1505.82;999.90;;;31.70;99.90;;;;;;5033975;28;20521;-69
2024/01/18 07:21:45;;;;;;;1512.97;999.90;;;31.70;99.90;;;;;;5034372;28;20028;-70
2024/01/18 07:24:12;;;;;;;1520.13;999.90;;;31.70;99.90;;;;;;5034063;28;20173;-70
2024/01/18 07:26:39;;;;;;;1493.88;999.90;;;31.80;99.90;;;;;;5033761;28;20014;-68
2024/01/18 07:29:06;;;;;;;1517.32;999.90;;;31.70;99.90;;;;;;5034139;28;20025;-68
2024/01/18 07:31:32;;;;;;;1510.15;999.90;;;31.70;99.90;;;;;;5031362;28;20014;-70
2024/01/18 07:33:59;;;;;;;1497.25;999.90;;;31.70;99.90;;;;;;5031911;28;20021;-72
2024/01/18 07:36:25;;;;;;;1501.75;999.90;;;31.70;99.90;;;;;;5034302;28;20577;-72
2024/01/18 07:38:52;;;;;;;1521.45;999.90;;;31.70;99.90;;;;;;5034444;28;20091;-73
2024/01/18 07:41:18;;;;;;;1508.55;999.90;;;31.80;99.90;;;;;;5034415;28;20025;-71
2024/01/18 07:43:45;;;;;;;1518.63;999.90;;;31.80;99.90;;;;;;5034174;28;20071;-68
2024/01/18 07:46:11;;;;;;;1514.47;999.90;;;31.90;99.90;;;;;;5033563;28;20470;-67
2024/01/18 07:48:38;;;;;;;1521.40;999.90;;;32.00;99.90;;;;;;5033584;28;20026;-67
2024/01/18 07:51:04;;;;;;;1523.28;999.90;;;32.00;99.90;;;;;;5033672;28;20045;-67
2024/01/18 07:53:31;;;;;;;1517.70;999.90;;;32.00;99.90;;;;;;5033648;28;20699;-67
2024/01/18 07:55:57;;;;;;;1521.10;999.90;;;32.00;99.90;;;;;;5030955;28;20029;-67
2024/01/18 07:58:24;;;;;;;1534.60;999.90;;;32.00;99.90;;;;;;5033398;28;20060;-73
2024/01/18 08:00:50;;;;;;;1532.75;999.90;;;32.00;99.90;;;;;;5031334;28;21104;-71
2024/01/18 08:03:17;;;;;;;1529.43;999.90;;;32.00;99.90;;;;;;5032643;28;20022;-72
2024/01/18 08:05:44;;;;;;;1509.60;999.90;;;32.00;99.90;;;;;;5033159;28;20475;-71
2024/01/18 08:08:10;;;;;;;1534.80;999.90;;;32.00;99.90;;;;;;5033407;28;20116;-71
2024/01/18 08:10:37;;;;;;;1531.47;999.90;;;32.10;99.90;;;;;;5030780;28;20497;-71
2024/01/18 08:13:03;;;;;;;1522.60;999.90;;;32.10;99.90;;;;;;5032944;28;20548;-71
2024/01/18 08:15:30;;;;;;;1510.38;999.90;;;32.10;99.90;;;;;;5033226;28;20021;-71
2024/01/18 08:17:57;;;;;;;1525.47;999.90;;;32.10;99.90;;;;;;5033152;28;20447;-73
2024/01/18 08:20:23;;;;;;;1528.68;999.90;;;32.10;99.90;;;;;;5032902;28;20100;-72
2024/01/18 08:22:50;;;;;;;1531.32;999.90;;;32.20;99.90;;;;;;5033026;28;20037;-72
2024/01/18 08:25:17;;;;;;;1505.80;999.90;;;32.20;99.90;;;;;;5032891;28;20021;-67
2024/01/18 08:27:43;;;;;;;1523.90;999.90;;;32.20;99.90;;;;;;5032818;28;20050;-67
2024/01/18 08:30:10;;;;;;;1521.10;999.90;;;32.10;99.90;;;;;;5033038;28;20022;-64
2024/01/18 08:32:37;;;;;;;1506.22;999.90;;;31.90;99.90;;;;;;5030909;28;20045;-66
2024/01/18 08:35:07;;;;;;;1537.18;999.90;;;31.90;99.90;;;;;;5032773;28;20064;-65
2024/01/18 08:37:35;;;;;;;1519.72;999.90;;;31.70;99.90;;;;;;5032749;28;20036;-67
2024/01/18 08:40:02;;;;;;;1511.88;999.90;;;31.60;99.90;;;;;;5031717;28;20036;-66
2024/01/18 08:42:28;;;;;;;1542.47;999.90;;;31.50;99.90;;;;;;5032443;28;20372;-65
2024/01/18 08:44:55;;;;;;;1482.30;999.90;;;31.50;99.90;;;;;;5032610;28;20091;-67
2024/01/18 08:47:22;;;;;;;1510.32;999.90;;;31.50;99.90;;;;;;5032510;28;20028;-69
2024/01/18 08:49:49;;;;;;;1531.22;999.90;;;31.40;99.90;;;;;;5035451;28;20075;-66
2024/01/18 08:52:15;;;;;;;1488.15;999.90;;;31.40;99.90;;;;;;5031982;28;20068;-66
2024/01/18 08:54:43;;;;;;;1523.07;999.90;;;31.60;99.90;;;;;;5032374;28;20049;-68
2024/01/18 08:57:09;;;;;;;1519.53;999.90;;;31.60;99.90;;;;;;5028349;28;20022;-66
2024/01/18 08:59:36;;;;;;;1484.05;999.90;;;31.60;99.90;;;;;;5033178;28;20037;-67
2024/01/18 09:02:03;;;;;;;1506.07;999.90;;;31.70;99.90;;;;;;5033421;28;20410;-66
2024/01/18 09:04:29;;;;;;;1516.20;999.90;;;31.70;99.90;;;;;;5030142;28;20017;-66
2024/01/18 09:06:56;;;;;;;1514.55;999.90;;;31.70;99.90;;;;;;5032881;28;20454;-66
2024/01/18 09:09:23;;;;;;;1470.82;999.90;;;31.60;99.90;;;;;;5033360;28;20152;-65
2024/01/18 09:11:49;;;;;;;1523.07;999.90;;;31.60;99.90;;;;;;5033527;28;20024;-67
2024/01/18 09:14:16;;;;;;;1473.18;999.90;;;31.60;99.90;;;;;;5033200;28;20032;-66
2024/01/18 09:16:42;;;;;;;1509.03;999.90;;;31.60;99.90;;;;;;5033300;28;20072;-66
2024/01/18 09:19:09;;;;;;;1535.78;999.90;;;31.60;99.90;;;;;;5033471;28;20021;-66
2024/01/18 09:21:41;;;;;;;1513.28;999.90;;;31.60;99.90;;;;;;5032900;28;20030;-65
2024/01/18 09:24:08;;;;;;;1535.28;999.90;;;31.60;99.90;;;;;;5030566;28;20128;-66
2024/01/18 09:26:34;;;;;;;1526.80;999.90;;;31.70;99.90;;;;;;5032768;28;20029;-67
2024/01/18 09:29:02;;;;;;;1489.68;999.90;;;31.60;99.90;;;;;;5033174;28;20423;-67
2024/01/18 09:31:29;;;;;;;1528.22;999.90;;;31.50;99.90;;;;;;5027009;28;20368;-67
2024/01/18 09:33:55;;;;;;;1530.18;999.90;;;31.40;99.90;;;;;;5029031;28;20108;-67
2024/01/18 09:36:22;;;;;;;1531.57;999.90;;;31.40;99.90;;;;;;5014490;28;20030;-68
2024/01/18 09:38:48;;;;;;;1536.70;999.90;;;31.40;99.90;;;;;;5032684;28;20014;-68
2024/01/18 09:41:18;;;;;;;1532.78;999.90;;;31.30;99.90;;;;;;5032591;28;20021;-67
2024/01/18 09:43:46;;;;;;;1528.60;999.90;;;31.10;99.90;;;;;;5030970;28;20028;-66
2024/01/18 09:46:13;;;;;;;1533.30;999.90;;;31.10;99.90;;;;;;5031507;28;20526;-65
2024/01/18 09:48:41;;;;;;;1550.55;999.90;;;31.00;99.90;;;;;;5029587;28;20018;-66
2024/01/18 09:51:09;;;;;;;1542.30;999.90;;;30.90;99.90;;;;;;5034034;28;20422;-67
2024/01/18 09:53:39;;;;;;;1540.50;999.90;;;30.90;99.90;;;;;;5034970;28;20025;-67
2024/01/18 09:56:19;;;;;;;1543.38;999.90;;;30.80;99.90;;;;;;5035607;28;20112;-67
2024/01/18 09:58:46;;;;;;;1550.57;999.90;;;30.80;99.90;;;;;;5034356;28;20021;-66
2024/01/18 10:01:18;;;;;;;1528.85;999.90;;;30.90;99.90;;;;;;5034745;28;20036;-66
2024/01/18 10:03:45;;;;;;;1537.68;999.90;;;30.80;99.90;;;;;;5033992;28;20028;-66
2024/01/18 10:06:12;;;;;;;1540.60;999.90;;;30.80;99.90;;;;;;5031630;28;20057;-67
2024/01/18 10:08:39;;;;;;;1542.65;999.90;;;30.70;99.90;;;;;;5034530;28;20112;-66
2024/01/18 10:11:05;;;;;;;1539.75;999.90;;;30.60;99.90;;;;;;5035825;28;20072;-66
2024/01/18 10:13:53;;;;;;;1544.50;999.90;;;30.50;99.90;;;;;;5036186;28;20040;-67
2024/01/18 10:16:29;;;;;;;1536.45;999.90;;;30.50;99.90;;;;;;5004803;28;20079;-66
2024/01/18 10:18:56;;;;;;;1539.20;999.90;;;30.50;99.90;;;;;;5036172;28;20013;-66
2024/01/18 10:21:24;;;;;;;1551.47;999.90;;;30.50;99.90;;;;;;5035813;28;20079;-64
2024/01/18 10:23:53;;;;;;;1443.85;999.90;;;30.40;99.90;;;;;;5035818;28;20487;-64
2024/01/18 10:26:22;;;;;;;1564.88;999.90;;;30.40;99.90;;;;;;5036166;28;20487;-65
2024/01/18 10:28:49;;;;;;;1451.05;999.90;;;30.40;99.90;;;;;;5035677;28;20510;-66
2024/01/18 10:31:15;;;;;;;1546.20;999.90;;;30.40;99.90;;;;;;5035795;28;20434;-66
2024/01/18 10:33:42;;;;;;;1576.75;999.90;;;30.50;99.90;;;;;;5035945;28;20474;-65
2024/01/18 10:36:09;;;;;;;1569.15;999.90;;;30.40;99.90;;;;;;5035517;28;20040;-66
2024/01/18 10:38:38;;;;;;;1568.40;999.90;;;30.40;99.90;;;;;;5035635;28;20036;-66
2024/01/18 10:41:07;;;;;;;1560.47;999.90;;;30.30;99.90;;;;;;5035673;28;20080;-66
2024/01/18 10:43:35;;;;;;;1530.15;999.90;;;30.30;99.90;;;;;;5035392;28;20029;-65
2024/01/18 10:46:02;;;;;;;1550.03;999.90;;;30.30;99.90;;;;;;5035659;28;20021;-66
2024/01/18 10:48:32;;;;;;;1567.57;999.90;;;30.30;99.90;;;;;;5035509;28;20028;-66
2024/01/18 10:51:00;;;;;;;1561.50;999.90;;;30.20;99.90;;;;;;5035238;28;20075;-66
2024/01/18 10:53:31;;;;;;;1555.28;999.90;;;30.10;99.90;;;;;;5032461;28;20017;-63
2024/01/18 10:55:58;;;;;;;1514.47;999.90;;;30.10;99.90;;;;;;5035469;28;20074;-68
2024/01/18 10:58:24;;;;;;;1445.75;999.90;;;30.10;99.90;;;;;;5034990;28;20052;-67
2024/01/18 11:00:51;;;;;;;1579.13;999.90;;;30.10;99.90;;;;;;5035206;28;20094;-67
2024/01/18 11:03:18;;;;;;;1554.82;999.90;;;30.20;99.90;;;;;;5034135;28;20025;-68
2024/01/18 11:05:45;;;;;;;1585.82;999.90;;;30.10;99.90;;;;;;5034671;28;20029;-67
2024/01/18 11:08:13;;;;;;;1514.85;999.90;;;30.10;99.90;;;;;;5035025;28;20064;-72
2024/01/18 11:10:43;;;;;;;1545.50;999.90;;;30.10;99.90;;;;;;5035184;28;20030;-72
2024/01/18 11:13:11;;;;;;;1544.63;999.90;;;30.10;99.90;;;;;;5034972;28;20032;-75
2024/01/18 11:15:40;;;;;;;1536.35;999.90;;;30.00;99.90;;;;;;5034866;28;20049;-68
2024/01/18 11:18:10;;;;;;;1531.28;999.90;;;30.00;99.90;;;;;;5033890;28;20482;-68
2024/01/18 11:20:57;;;;;;;1533.93;999.90;;;29.90;99.90;;;;;;5034596;28;20509;-68
2024/01/18 11:23:33;;;;;;;1545.53;999.90;;;29.90;99.90;;;;;;5032468;28;20152;-70
2024/01/18 11:25:59;;;;;;;1528.40;999.90;;;29.80;99.90;;;;;;5031990;28;20108;-68
2024/01/18 11:28:27;;;;;;;1543.40;999.90;;;29.80;99.90;;;;;;5034475;28;20556;-67
2024/01/18 11:30:54;;;;;;;1548.70;999.90;;;29.80;99.90;;;;;;5034410;28;20028;-69
2024/01/18 11:33:21;;;;;;;1556.25;999.90;;;29.80;99.90;;;;;;5034506;28;20014;-69
2024/01/18 11:35:50;;;;;;;1505.50;999.90;;;29.70;99.90;;;;;;5034519;28;20036;-69
2024/01/18 11:38:19;;;;;;;1550.15;999.90;;;29.70;99.90;;;;;;5034271;28;20048;-68
2024/01/18 11:40:47;;;;;;;1533.68;999.90;;;29.70;99.90;;;;;;5034332;28;20029;-68
2024/01/18 11:43:14;;;;;;;1563.90;999.90;;;29.60;99.90;;;;;;5034238;28;20470;-69
2024/01/18 11:45:44;;;;;;;1558.47;999.90;;;29.60;99.90;;;;;;5034054;28;20025;-68
2024/01/18 11:48:12;;;;;;;1553.35;999.90;;;29.60;99.90;;;;;;5034020;28;20099;-68
2024/01/18 11:50:38;;;;;;;1550.97;999.90;;;29.60;99.90;;;;;;5031474;28;20139;-69
2024/01/18 11:53:06;;;;;;;1560.63;999.90;;;29.50;99.90;;;;;;5033919;28;20029;-70
2024/01/18 11:55:36;;;;;;;1444.15;999.90;;;29.50;99.90;;;;;;5034341;28;20056;-73
2024/01/18 11:58:03;;;;;;;1567.07;999.90;;;29.60;99.90;;;;;;5034277;28;20053;-73